Time;durP1;ratioP1;P1;durP2;ratioP2;P2;SDS_P1;SDS_P2;PMS_P1;PMS_P2;Temp;Humidity;BMP_temperature;BMP_pressure;BME280_temperature;BME280_humidity;BME280_pressure;Samples;Min_cycle;Max_cycle;Signal;HPM_P1;HPM_P2
2021/08/09 00:01:19;;;;;;;12.65;9.30;;;640.70;1715.20;;;;;;5097804;28;20028;-77
2021/08/09 00:03:44;;;;;;;16.02;10.18;;;640.60;1715.20;;;;;;5097536;28;20052;-77
2021/08/09 00:06:10;;;;;;;13.45;9.30;;;640.60;1766.40;;;;;;5097879;28;20028;-77
2021/08/09 00:08:36;;;;;;;13.07;9.02;;;640.60;1766.40;;;;;;5097541;28;20020;-77
2021/08/09 00:11:02;;;;;;;11.85;8.73;;;640.60;1715.20;;;;;;5097637;28;20028;-78
2021/08/09 00:13:28;;;;;;;14.30;9.02;;;640.70;1715.20;;;;;;5097838;28;20012;-77
2021/08/09 00:15:54;;;;;;;12.90;9.30;;;640.90;1715.20;;;;;;5097756;28;20178;-78
2021/08/09 00:18:23;;;;;;;12.07;8.75;;;640.90;1715.20;;;;;;5097343;28;20020;-77
2021/08/09 00:20:49;;;;;;;12.80;9.18;;;640.90;1715.20;;;;;;5097266;28;20016;-76
2021/08/09 00:23:15;;;;;;;16.35;9.50;;;640.90;1715.20;;;;;;5097029;28;20484;-78
2021/08/09 00:25:41;;;;;;;16.08;8.65;;;640.90;1715.20;;;;;;5096745;28;20081;-75
2021/08/09 00:28:07;;;;;;;12.25;8.35;;;640.80;1715.20;;;;;;5097510;28;20055;-77
2021/08/09 00:30:32;;;;;;;11.88;8.88;;;640.70;1689.60;;;;;;5097305;28;20052;-78
2021/08/09 00:32:58;;;;;;;13.23;8.77;;;640.60;1689.60;;;;;;5097101;28;20107;-77
2021/08/09 00:35:24;;;;;;;16.98;9.27;;;640.50;1689.60;;;;;;5095573;28;20058;-77
2021/08/09 00:37:50;;;;;;;14.98;9.38;;;640.50;1715.20;;;;;;5097207;28;20089;-78
2021/08/09 00:40:15;;;;;;;14.05;10.00;;;640.50;1740.80;;;;;;5096845;28;20442;-76
2021/08/09 00:42:41;;;;;;;13.55;9.45;;;640.50;1715.20;;;;;;5097088;28;20099;-77
2021/08/09 00:45:08;;;;;;;14.82;9.43;;;640.50;1740.80;;;;;;5096696;28;20082;-77
2021/08/09 00:47:33;;;;;;;14.63;9.98;;;640.50;1740.80;;;;;;5096822;28;20020;-76
2021/08/09 00:50:00;;;;;;;14.70;9.73;;;640.50;1740.80;;;;;;5098199;28;20095;-78
2021/08/09 00:52:26;;;;;;;16.00;9.10;;;640.40;1740.80;;;;;;5096734;28;20016;-78
2021/08/09 00:54:52;;;;;;;12.35;8.73;;;640.40;1766.40;;;;;;5099027;28;20036;-77
2021/08/09 00:57:18;;;;;;;17.60;10.38;;;640.20;1766.40;;;;;;5106066;28;20066;-77
2021/08/09 00:59:44;;;;;;;12.30;9.48;;;640.30;1766.40;;;;;;5114920;28;20022;-77
2021/08/09 01:02:10;;;;;;;14.60;9.88;;;640.30;1766.40;;;;;;5115612;28;20028;-76
2021/08/09 01:04:36;;;;;;;15.10;8.93;;;640.40;1766.40;;;;;;5115512;28;20071;-76
2021/08/09 01:07:02;;;;;;;14.18;10.00;;;640.40;1766.40;;;;;;5104722;28;20102;-76
2021/08/09 01:09:52;;;;;;;22.27;9.40;;;640.40;1766.40;;;;;;5103164;28;20031;-76
2021/08/09 01:12:21;;;;;;;14.43;9.60;;;640.30;1766.40;;;;;;5105899;28;20020;-76
2021/08/09 01:15:19;;;;;;;12.68;9.73;;;640.30;1766.40;;;;;;5104350;28;20024;-78
2021/08/09 01:17:47;;;;;;;14.68;10.20;;;640.30;1766.40;;;;;;5101899;28;20101;-76
2021/08/09 01:20:49;;;;;;;17.98;10.20;;;640.20;1766.40;;;;;;5105228;28;20023;-76
2021/08/09 01:23:42;;;;;;;10.40;8.88;;;640.10;1792.00;;;;;;5105504;28;20119;-75
2021/08/09 01:26:17;;;;;;;15.30;10.75;;;640.10;1792.00;;;;;;5100152;28;20107;-78
2021/08/09 01:28:44;;;;;;;13.48;9.82;;;640.10;1817.60;;;;;;5100736;28;20024;-80
2021/08/09 01:31:11;;;;;;;12.02;8.63;;;640.10;1792.00;;;;;;5103726;28;20024;-77
2021/08/09 01:33:41;;;;;;;13.27;8.70;;;640.10;1792.00;;;;;;5102639;28;20043;-76
2021/08/09 01:36:08;;;;;;;13.35;9.32;;;640.00;1792.00;;;;;;5102504;28;20071;-76
2021/08/09 01:38:35;;;;;;;13.43;8.85;;;640.00;1792.00;;;;;;5102953;28;20023;-76
2021/08/09 01:41:01;;;;;;;10.75;8.35;;;615.30;1792.00;;;;;;5104246;28;20118;-75
2021/08/09 01:43:30;;;;;;;11.50;9.38;;;615.30;1817.60;;;;;;5105980;28;20043;-77
2021/08/09 01:45:57;;;;;;;12.25;9.57;;;615.10;1817.60;;;;;;5101773;28;20031;-74
2021/08/09 01:48:24;;;;;;;12.15;9.88;;;615.10;1817.60;;;;;;5096804;28;20020;-77
2021/08/09 01:50:50;;;;;;;14.30;9.73;;;615.10;1817.60;;;;;;5097759;28;20028;-77
2021/08/09 01:53:17;;;;;;;16.35;10.27;;;615.10;1817.60;;;;;;5098141;28;20032;-78
2021/08/09 01:55:43;;;;;;;13.50;9.50;;;615.10;1817.60;;;;;;5098606;28;20031;-77
2021/08/09 01:58:09;;;;;;;13.65;9.05;;;615.00;1817.60;;;;;;5099206;28;20020;-78
2021/08/09 02:00:35;;;;;;;15.45;9.77;;;615.00;1843.20;;;;;;5098317;28;20028;-80
2021/08/09 02:03:01;;;;;;;14.88;9.02;;;615.00;1817.60;;;;;;5097013;28;20024;-76
2021/08/09 02:05:27;;;;;;;15.93;9.70;;;614.90;1843.20;;;;;;5098741;28;20051;-77
2021/08/09 02:07:54;;;;;;;19.55;10.48;;;614.90;1817.60;;;;;;5099302;28;20032;-75
2021/08/09 02:10:23;;;;;;;16.73;10.50;;;614.80;1843.20;;;;;;5098136;28;20077;-77
2021/08/09 02:13:12;;;;;;;11.48;8.88;;;614.80;1843.20;;;;;;5095850;28;20092;-77
2021/08/09 02:15:49;;;;;;;13.80;9.45;;;614.90;1817.60;;;;;;5095484;28;20031;-78
2021/08/09 02:18:29;;;;;;;18.40;9.98;;;614.80;1792.00;;;;;;5095718;28;20106;-78
2021/08/09 02:20:59;;;;;;;14.30;10.23;;;614.80;1792.00;;;;;;5095451;28;20023;-78
2021/08/09 02:23:59;;;;;;;13.88;9.98;;;614.80;1817.60;;;;;;5095147;28;20017;-76
2021/08/09 02:26:36;;;;;;;16.15;9.98;;;614.80;1792.00;;;;;;5033610;28;20025;-75
2021/08/09 02:29:09;;;;;;;13.73;10.45;;;614.70;1843.20;;;;;;5033180;28;20037;-76
2021/08/09 02:31:37;;;;;;;12.77;9.70;;;614.60;1843.20;;;;;;5033059;28;20568;-77
2021/08/09 02:34:05;;;;;;;11.45;9.63;;;614.60;1843.20;;;;;;5032981;28;20034;-77
2021/08/09 02:36:31;;;;;;;12.77;9.13;;;614.60;1843.20;;;;;;5032786;28;20148;-78
2021/08/09 02:38:59;;;;;;;15.38;10.27;;;614.60;1868.80;;;;;;5033102;28;20025;-77
2021/08/09 02:41:27;;;;;;;14.15;9.18;;;614.60;1868.80;;;;;;5032893;28;20188;-77
2021/08/09 02:43:53;;;;;;;15.10;10.18;;;614.60;1843.20;;;;;;5032944;28;20030;-77
2021/08/09 02:46:19;;;;;;;12.57;9.55;;;614.70;1843.20;;;;;;5032706;28;20022;-78
2021/08/09 02:48:47;;;;;;;12.52;9.60;;;614.60;1843.20;;;;;;5032684;28;20080;-77
2021/08/09 02:51:19;;;;;;;13.85;10.02;;;614.60;1843.20;;;;;;5032593;28;20018;-77
2021/08/09 02:53:47;;;;;;;14.40;10.30;;;614.60;1843.20;;;;;;5032027;28;20107;-77
2021/08/09 02:56:13;;;;;;;13.15;10.15;;;614.40;1868.80;;;;;;5032671;28;20104;-76
2021/08/09 02:58:39;;;;;;;16.25;9.98;;;614.50;1868.80;;;;;;5032642;28;20109;-77
2021/08/09 03:01:07;;;;;;;15.07;11.48;;;614.50;1868.80;;;;;;5032560;28;20060;-77
2021/08/09 03:03:36;;;;;;;17.83;12.60;;;614.50;1868.80;;;;;;5083015;28;20023;-78
2021/08/09 03:06:02;;;;;;;15.80;12.80;;;614.50;1868.80;;;;;;5094819;28;20102;-76
2021/08/09 03:08:29;;;;;;;15.80;12.68;;;614.40;1868.80;;;;;;5094391;28;20125;-77
2021/08/09 03:10:55;;;;;;;16.70;13.68;;;589.70;1894.40;;;;;;5094670;28;20161;-78
2021/08/09 03:13:22;;;;;;;21.13;13.15;;;589.60;1894.40;;;;;;5094550;28;20020;-76
2021/08/09 03:15:49;;;;;;;25.35;14.82;;;589.50;1920.00;;;;;;5093881;28;20369;-76
2021/08/09 03:18:15;;;;;;;20.98;13.30;;;589.40;1920.00;;;;;;5094737;28;20107;-76
2021/08/09 03:20:41;;;;;;;19.92;13.93;;;589.30;1920.00;;;;;;5094747;28;20093;-77
2021/08/09 03:23:07;;;;;;;18.88;13.13;;;589.20;1945.60;;;;;;5094727;28;20101;-78
2021/08/09 03:25:33;;;;;;;20.35;11.63;;;589.20;1945.60;;;;;;5094489;28;20024;-76
2021/08/09 03:27:58;;;;;;;22.27;13.25;;;589.20;1945.60;;;;;;5094832;28;20026;-78
2021/08/09 03:30:29;;;;;;;17.73;12.18;;;589.30;1920.00;;;;;;5094552;28;20440;-77
2021/08/09 03:32:55;;;;;;;17.02;12.18;;;589.30;1920.00;;;;;;5094385;28;20024;-77
2021/08/09 03:35:22;;;;;;;17.15;13.05;;;589.30;1920.00;;;;;;5093869;28;20070;-77
2021/08/09 03:37:48;;;;;;;18.00;12.40;;;589.40;1920.00;;;;;;5094076;28;20044;-77
2021/08/09 03:40:15;;;;;;;18.60;12.95;;;589.50;1920.00;;;;;;5094146;28;20016;-75
2021/08/09 03:42:40;;;;;;;17.05;12.52;;;589.50;1920.00;;;;;;5094292;28;20024;-77
2021/08/09 03:45:07;;;;;;;16.85;11.55;;;589.60;1920.00;;;;;;5094172;28;20035;-78
2021/08/09 03:47:33;;;;;;;13.30;10.52;;;589.60;1920.00;;;;;;5094370;28;20107;-77
2021/08/09 03:49:59;;;;;;;14.98;12.05;;;589.60;1894.40;;;;;;5093948;28;20055;-77
2021/08/09 03:52:25;;;;;;;15.10;11.10;;;589.60;1894.40;;;;;;5094084;28;20081;-76
2021/08/09 03:54:51;;;;;;;16.45;11.05;;;589.70;1894.40;;;;;;5094097;28;20043;-77
2021/08/09 03:57:16;;;;;;;18.08;10.88;;;589.70;1868.80;;;;;;5093707;28;20028;-78
2021/08/09 03:59:42;;;;;;;14.18;12.02;;;589.70;1868.80;;;;;;5093799;28;20062;-79
2021/08/09 04:02:14;;;;;;;18.20;11.18;;;589.70;1868.80;;;;;;5094155;28;20035;-76
2021/08/09 04:04:39;;;;;;;26.63;17.45;;;589.70;1868.80;;;;;;5093183;28;20036;-77
2021/08/09 04:07:05;;;;;;;21.17;16.30;;;589.60;1894.40;;;;;;5094460;28;20467;-76
2021/08/09 04:09:31;;;;;;;24.88;15.88;;;589.50;1920.00;;;;;;5094504;28;20028;-77
2021/08/09 04:11:57;;;;;;;17.30;14.13;;;589.40;1920.00;;;;;;5093910;28;20024;-76
2021/08/09 04:14:22;;;;;;;18.85;13.32;;;589.30;1920.00;;;;;;5093970;28;20027;-76
2021/08/09 04:16:48;;;;;;;18.98;13.52;;;589.30;1945.60;;;;;;5093499;28;20028;-76
2021/08/09 04:19:14;;;;;;;22.20;14.13;;;589.30;1945.60;;;;;;5093797;28;20017;-75
2021/08/09 04:21:39;;;;;;;19.52;13.18;;;589.30;1945.60;;;;;;5093586;28;20073;-76
2021/08/09 04:24:05;;;;;;;21.90;12.20;;;589.20;1971.20;;;;;;5093415;28;20048;-76
2021/08/09 04:26:31;;;;;;;14.50;11.80;;;589.10;1996.80;;;;;;5095671;28;20035;-77
2021/08/09 04:28:57;;;;;;;18.50;12.13;;;589.20;1996.80;;;;;;5097220;28;20031;-78
2021/08/09 04:31:23;;;;;;;17.05;12.63;;;589.20;1971.20;;;;;;5096981;28;20138;-76
2021/08/09 04:33:50;;;;;;;19.70;13.05;;;589.20;1971.20;;;;;;5097253;28;20103;-76
2021/08/09 04:36:16;;;;;;;18.70;13.75;;;589.30;1971.20;;;;;;5097309;28;20032;-77
2021/08/09 04:38:43;;;;;;;20.75;12.88;;;589.40;1971.20;;;;;;5097137;28;20055;-77
2021/08/09 04:41:10;;;;;;;17.77;13.88;;;589.40;1945.60;;;;;;5097008;28;20027;-77
2021/08/09 04:43:37;;;;;;;18.27;13.00;;;589.50;1945.60;;;;;;5097170;28;20064;-77
2021/08/09 04:46:05;;;;;;;19.30;13.20;;;589.50;1920.00;;;;;;5095627;28;20016;-76
2021/08/09 04:48:31;;;;;;;19.50;13.27;;;589.50;1945.60;;;;;;5096667;28;20058;-77
2021/08/09 04:50:57;;;;;;;16.35;12.30;;;589.60;1920.00;;;;;;5097066;28;20549;-77
2021/08/09 04:53:23;;;;;;;17.48;13.07;;;589.60;1920.00;;;;;;5096785;28;20119;-78
2021/08/09 04:55:49;;;;;;;21.23;13.38;;;589.60;1920.00;;;;;;5095600;28;20103;-77
2021/08/09 04:58:15;;;;;;;20.20;11.95;;;589.70;1920.00;;;;;;5097019;28;20032;-76
2021/08/09 05:00:41;;;;;;;19.88;12.73;;;589.70;1920.00;;;;;;5096753;28;20020;-77
2021/08/09 05:03:07;;;;;;;15.65;12.02;;;614.50;1920.00;;;;;;5096651;28;20027;-78
2021/08/09 05:05:33;;;;;;;24.48;14.02;;;614.50;1920.00;;;;;;5096651;28;20028;-76
2021/08/09 05:07:58;;;;;;;22.02;13.95;;;614.60;1894.40;;;;;;5096800;28;20078;-75
2021/08/09 05:10:25;;;;;;;22.35;14.43;;;614.70;1894.40;;;;;;5096746;28;20174;-76
2021/08/09 05:12:52;;;;;;;20.45;14.27;;;614.70;1894.40;;;;;;5096378;28;20149;-76
2021/08/09 05:15:19;;;;;;;23.05;12.88;;;614.80;1868.80;;;;;;5096187;28;20027;-76
2021/08/09 05:17:45;;;;;;;22.83;14.32;;;614.90;1920.00;;;;;;5095042;28;20065;-77
2021/08/09 05:20:11;;;;;;;16.58;12.80;;;614.90;1920.00;;;;;;5096175;28;20442;-77
2021/08/09 06:30:05;;;;;;;16.98;13.60;;;614.80;1817.60;;;;;;5111597;27;20893;-77
2021/08/09 06:37:41;;;;;;;22.40;14.05;;;665.80;1715.20;;;;;;5036342;26;20063;-76
2021/08/09 06:40:09;;;;;;;21.67;13.35;;;666.10;1715.20;;;;;;5072017;28;20511;-75
2021/08/09 06:42:34;;;;;;;22.38;13.70;;;666.20;1715.20;;;;;;5090218;28;20021;-76
2021/08/09 06:45:00;;;;;;;22.25;14.35;;;666.30;1638.40;;;;;;5072012;28;20127;-76
2021/08/09 06:47:26;;;;;;;19.63;13.48;;;666.50;1689.60;;;;;;5090188;28;20031;-74
2021/08/09 06:49:52;;;;;;;26.75;14.90;;;691.30;1638.40;;;;;;5071914;28;20477;-74
2021/08/09 06:52:20;;;;;;;21.17;14.77;;;691.40;1612.80;;;;;;5090344;28;20028;-76
2021/08/09 06:54:46;;;;;;;20.85;14.82;;;691.50;1612.80;;;;;;5090333;28;20012;-76
2021/08/09 06:57:12;;;;;;;21.73;14.40;;;691.60;1612.80;;;;;;5089840;28;20036;-74
2021/08/09 06:59:38;;;;;;;22.85;15.73;;;691.80;1587.20;;;;;;5090267;28;20393;-75
2021/08/09 07:02:04;;;;;;;20.40;14.00;;;691.90;1587.20;;;;;;5071790;28;20367;-74
2021/08/09 07:05:10;;;;;;;23.00;13.50;;;692.10;1587.20;;;;;;5090281;28;20024;-75
2021/08/09 07:07:38;;;;;;;22.73;14.23;;;716.80;1612.80;;;;;;5089974;28;20111;-74
2021/08/09 07:10:05;;;;;;;16.90;14.00;;;717.00;1561.60;;;;;;5090165;28;20439;-75
2021/08/09 07:12:30;;;;;;;16.88;13.50;;;717.20;1510.40;;;;;;5071927;28;20074;-75
2021/08/09 07:18:18;;;;;;;20.35;14.60;;;717.40;1484.80;;;;;;5087241;28;20131;-76
2021/08/09 07:24:05;;;;;;;21.75;13.82;;;717.70;1459.20;;;;;;5089714;28;20031;-75
2021/08/09 07:26:32;;;;;;;21.40;14.50;;;742.60;1484.80;;;;;;5090591;28;20393;-74
2021/08/09 07:29:00;;;;;;;20.50;13.02;;;742.70;1510.40;;;;;;5089640;28;20450;-74
2021/08/09 07:31:26;;;;;;;16.48;11.07;;;742.90;1408.00;;;;;;5079612;28;20029;-74
2021/08/09 07:33:52;;;;;;;15.63;9.70;;;743.00;1382.40;;;;;;5081579;28;20024;-75
2021/08/09 07:36:18;;;;;;;19.42;8.60;;;743.10;1280.00;;;;;;5081144;28;20410;-75
2021/08/09 07:38:43;;;;;;;17.98;9.98;;;768.00;1280.00;;;;;;5081583;28;20131;-74
2021/08/09 07:41:10;;;;;;;18.42;11.13;;;768.10;1254.40;;;;;;5082585;28;20434;-74
2021/08/09 07:43:36;;;;;;;19.88;11.50;;;768.20;1280.00;;;;;;5075531;28;20462;-74
2021/08/09 07:46:02;;;;;;;17.25;11.10;;;768.40;1280.00;;;;;;5075554;28;20115;-74
2021/08/09 07:48:30;;;;;;;20.40;11.82;;;768.60;1280.00;;;;;;5075677;28;20452;-74
2021/08/09 07:50:56;;;;;;;13.02;10.77;;;768.70;1331.20;;;;;;5075480;28;20359;-76
2021/08/09 07:53:21;;;;;;;11.93;9.48;;;768.90;1280.00;;;;;;5075897;28;20067;-75
2021/08/09 07:55:47;;;;;;;15.27;10.10;;;793.70;1305.60;;;;;;5075581;28;20103;-75
2021/08/09 07:58:13;;;;;;;9.18;7.72;;;794.00;1254.40;;;;;;5076146;28;20036;-75
2021/08/09 08:00:39;;;;;;;14.02;8.32;;;794.00;1254.40;;;;;;5075942;28;20078;-75
2021/08/09 08:03:06;;;;;;;13.30;8.25;;;794.20;1228.80;;;;;;5077079;28;20040;-77
2021/08/09 08:05:32;;;;;;;13.52;8.10;;;794.30;1203.20;;;;;;5057696;28;20044;-74
2021/08/09 08:07:57;;;;;;;12.18;7.40;;;794.50;1203.20;;;;;;5076616;28;20017;-76
2021/08/09 08:10:23;;;;;;;12.63;8.77;;;819.30;1152.00;;;;;;5076122;28;20484;-75
2021/08/09 08:12:49;;;;;;;11.80;7.97;;;819.30;1177.60;;;;;;5076127;28;20024;-75
2021/08/09 08:15:15;;;;;;;13.85;7.45;;;819.50;1228.80;;;;;;5076011;28;20037;-75
2021/08/09 08:17:41;;;;;;;10.70;7.82;;;819.60;1228.80;;;;;;5075939;28;20096;-75
2021/08/09 08:20:07;;;;;;;13.40;7.65;;;819.80;1177.60;;;;;;5076099;28;20024;-75
2021/08/09 08:22:33;;;;;;;11.50;6.65;;;820.00;1203.20;;;;;;5077919;28;20020;-75
2021/08/09 08:24:59;;;;;;;12.50;7.65;;;820.10;1126.40;;;;;;5058196;28;20047;-76
2021/08/09 08:27:24;;;;;;;14.90;7.30;;;820.10;1100.80;;;;;;5075164;28;20021;-75
2021/08/09 08:29:50;;;;;;;11.43;7.78;;;820.10;1126.40;;;;;;5074882;28;20070;-75
2021/08/09 08:32:16;;;;;;;12.00;7.45;;;844.90;1177.60;;;;;;5075327;28;20016;-75
2021/08/09 08:34:42;;;;;;;12.82;7.35;;;845.00;1177.60;;;;;;5075085;28;20032;-75
2021/08/09 08:37:07;;;;;;;12.90;7.32;;;845.20;1152.00;;;;;;5056653;28;20048;-75
2021/08/09 08:39:33;;;;;;;13.95;7.20;;;845.20;1177.60;;;;;;5056098;28;20036;-75
2021/08/09 08:42:00;;;;;;;13.18;7.47;;;845.40;1152.00;;;;;;5073851;28;20377;-76
2021/08/09 08:44:26;;;;;;;10.02;6.93;;;845.40;1126.40;;;;;;5074892;28;20043;-75
2021/08/09 08:46:54;;;;;;;9.95;6.93;;;845.50;1126.40;;;;;;5074804;28;20473;-75
2021/08/09 08:49:22;;;;;;;13.23;8.27;;;845.60;1126.40;;;;;;5074787;28;20020;-76
2021/08/09 08:51:49;;;;;;;17.98;7.60;;;845.70;1126.40;;;;;;5056621;28;20474;-75
2021/08/09 08:54:15;;;;;;;12.25;7.78;;;870.50;1126.40;;;;;;5074805;28;20024;-75
2021/08/09 08:56:42;;;;;;;13.23;6.72;;;870.60;1100.80;;;;;;5074424;28;20095;-75
2021/08/09 08:59:14;;;;;;;18.00;7.57;;;870.70;1100.80;;;;;;5074464;28;20037;-75
2021/08/09 09:01:47;;;;;;;16.98;8.57;;;870.80;1100.80;;;;;;5074936;28;20543;-75
2021/08/09 09:04:23;;;;;;;12.07;6.90;;;870.90;1075.20;;;;;;5074846;28;20021;-75
2021/08/09 09:07:06;;;;;;;11.68;6.93;;;870.90;1075.20;;;;;;5074568;28;20033;-75
2021/08/09 09:09:39;;;;;;;12.90;6.05;;;871.10;1100.80;;;;;;5074442;28;20043;-75
2021/08/09 09:12:17;;;;;;;12.27;5.47;;;871.20;1049.60;;;;;;5074448;28;20470;-75
2021/08/09 09:14:43;;;;;;;11.45;5.75;;;871.20;972.80;;;;;;5074164;28;20112;-75
2021/08/09 09:17:09;;;;;;;12.25;5.60;;;871.20;998.40;;;;;;5074247;28;20036;-76
2021/08/09 09:19:41;;;;;;;8.93;6.10;;;871.20;972.80;;;;;;5074124;28;20131;-76
2021/08/09 09:22:20;;;;;;;9.30;5.70;;;871.20;998.40;;;;;;5073937;28;20103;-75
2021/08/09 09:24:49;;;;;;;11.65;6.65;;;896.00;998.40;;;;;;5074311;28;20039;-75
2021/08/09 09:27:35;;;;;;;11.70;6.28;;;896.00;1049.60;;;;;;5074027;28;20028;-76
2021/08/09 09:30:25;;;;;;;8.45;5.75;;;896.20;972.80;;;;;;5073980;28;20112;-76
2021/08/09 09:33:02;;;;;;;7.85;5.85;;;896.20;1024.00;;;;;;5074051;28;20366;-75
2021/08/09 09:35:28;;;;;;;9.50;5.82;;;896.30;1024.00;;;;;;5073974;28;20040;-76
2021/08/09 09:37:54;;;;;;;16.25;6.50;;;896.40;998.40;;;;;;5074307;28;20115;-76
2021/08/09 09:40:20;;;;;;;10.68;6.80;;;896.50;998.40;;;;;;5074861;28;20103;-75
2021/08/09 09:42:47;;;;;;;7.93;6.40;;;896.60;972.80;;;;;;5074493;28;20504;-75
2021/08/09 09:45:20;;;;;;;10.48;5.90;;;896.60;947.20;;;;;;5073786;28;20394;-75
2021/08/09 09:48:08;;;;;;;9.48;6.45;;;896.60;972.80;;;;;;5056929;28;20020;-76
2021/08/09 09:50:41;;;;;;;11.23;5.78;;;896.90;947.20;;;;;;5058390;28;20115;-76
2021/08/09 09:53:21;;;;;;;7.90;6.00;;;896.90;947.20;;;;;;5074826;28;20017;-76
2021/08/09 09:55:49;;;;;;;13.25;5.95;;;921.60;998.40;;;;;;5074664;28;20032;-76
2021/08/09 09:58:18;;;;;;;9.65;5.70;;;896.90;947.20;;;;;;5074119;28;20420;-76
2021/08/09 10:00:45;;;;;;;14.20;6.05;;;921.70;998.40;;;;;;5073451;28;20032;-76
2021/08/09 10:03:11;;;;;;;10.30;4.90;;;921.70;947.20;;;;;;5073475;28;20363;-76
2021/08/09 10:05:42;;;;;;;9.88;6.00;;;921.80;947.20;;;;;;5073626;28;20029;-76
2021/08/09 10:08:16;;;;;;;15.80;6.22;;;921.80;947.20;;;;;;5074061;28;20017;-76
2021/08/09 10:10:47;;;;;;;11.13;5.85;;;921.90;947.20;;;;;;5073698;28;20120;-76
2021/08/09 10:13:19;;;;;;;12.65;5.78;;;922.00;1049.60;;;;;;5055986;28;20063;-76
2021/08/09 10:15:52;;;;;;;9.65;5.90;;;922.20;1024.00;;;;;;5073635;28;20020;-76
2021/08/09 10:18:29;;;;;;;10.25;5.82;;;922.30;972.80;;;;;;5073263;28;20040;-76
2021/08/09 10:20:58;;;;;;;8.57;5.72;;;922.50;947.20;;;;;;5073648;28;20029;-76
2021/08/09 10:23:53;;;;;;;10.63;5.40;;;922.50;921.60;;;;;;5073139;28;20149;-76
2021/08/09 10:26:30;;;;;;;11.68;6.50;;;947.30;947.20;;;;;;4991902;28;20602;-76
2021/08/09 10:29:02;;;;;;;10.65;5.80;;;947.40;998.40;;;;;;5011584;28;20152;-76
2021/08/09 10:31:31;;;;;;;10.73;6.18;;;947.50;972.80;;;;;;4994964;28;20087;-76
2021/08/09 10:33:59;;;;;;;8.13;5.40;;;947.70;972.80;;;;;;5012467;28;20037;-77
2021/08/09 10:36:25;;;;;;;9.63;5.75;;;947.80;972.80;;;;;;5011590;28;20038;-77
2021/08/09 10:39:00;;;;;;;8.65;5.97;;;948.00;972.80;;;;;;5011784;28;20044;-76
2021/08/09 10:41:28;;;;;;;10.85;5.93;;;972.80;998.40;;;;;;5012495;28;20022;-76
2021/08/09 10:44:06;;;;;;;11.52;5.70;;;972.90;972.80;;;;;;5008739;28;20030;-77
2021/08/09 10:46:40;;;;;;;19.20;5.97;;;973.10;947.20;;;;;;5011001;28;20053;-75
2021/08/09 10:49:07;;;;;;;9.40;5.65;;;973.20;921.60;;;;;;5011307;28;20030;-75
2021/08/09 10:51:50;;;;;;;7.70;5.55;;;973.20;921.60;;;;;;5010825;28;20030;-75
2021/08/09 10:54:30;;;;;;;9.35;5.40;;;973.20;896.00;;;;;;5011194;28;20045;-75
2021/08/09 10:56:58;;;;;;;9.00;5.07;;;973.30;921.60;;;;;;5011120;28;20230;-75
2021/08/09 10:59:45;;;;;;;9.48;5.32;;;973.40;896.00;;;;;;5010673;28;20554;-77
2021/08/09 11:02:16;;;;;;;8.90;5.70;;;973.50;921.60;;;;;;5028233;28;20041;-76
2021/08/09 11:04:42;;;;;;;11.90;5.95;;;973.60;896.00;;;;;;5074188;28;20131;-77
2021/08/09 11:07:17;;;;;;;8.57;5.35;;;973.70;896.00;;;;;;5076318;28;20040;-75
2021/08/09 11:09:47;;;;;;;6.35;4.70;;;998.40;921.60;;;;;;5076469;28;20493;-75
2021/08/09 11:12:22;;;;;;;9.57;5.70;;;998.40;947.20;;;;;;5076522;28;20034;-78
2021/08/09 11:15:11;;;;;;;17.10;5.78;;;998.50;947.20;;;;;;5076767;28;20028;-75
2021/08/09 11:17:36;;;;;;;9.95;5.15;;;998.60;947.20;;;;;;5076012;28;20031;-76
2021/08/09 11:20:11;;;;;;;9.38;4.80;;;998.50;896.00;;;;;;5076687;28;20025;-76
2021/08/09 11:22:38;;;;;;;7.28;5.05;;;998.60;870.40;;;;;;5057821;28;20161;-75
2021/08/09 11:25:22;;;;;;;7.22;5.45;;;998.60;921.60;;;;;;5076215;28;20021;-75
2021/08/09 11:27:59;;;;;;;10.70;5.43;;;998.70;896.00;;;;;;5075961;28;20497;-75
2021/08/09 11:30:43;;;;;;;11.15;5.38;;;998.60;870.40;;;;;;5075790;28;20111;-75
2021/08/09 11:33:22;;;;;;;14.88;5.10;;;998.60;870.40;;;;;;5076046;28;20021;-75
2021/08/09 11:35:49;;;;;;;10.52;5.05;;;998.60;870.40;;;;;;5075570;28;20056;-77
2021/08/09 11:38:16;;;;;;;8.80;5.13;;;998.60;870.40;;;;;;5075836;28;20140;-75
2021/08/09 11:40:48;;;;;;;8.15;5.50;;;998.70;870.40;;;;;;5075873;28;20017;-75
2021/08/09 11:43:23;;;;;;;12.77;5.15;;;998.80;870.40;;;;;;5075559;28;20103;-78
2021/08/09 11:45:48;;;;;;;10.38;5.45;;;998.70;844.80;;;;;;5075559;28;20021;-75
2021/08/09 11:48:22;;;;;;;12.57;5.35;;;998.50;870.40;;;;;;5075740;28;20036;-75
2021/08/09 11:50:57;;;;;;;7.40;5.20;;;998.40;870.40;;;;;;5075882;28;20017;-74
2021/08/09 11:53:25;;;;;;;11.65;5.13;;;998.40;870.40;;;;;;5075408;28;20377;-74
2021/08/09 11:56:02;;;;;;;8.85;5.70;;;998.50;870.40;;;;;;5075226;28;20024;-77
2021/08/09 11:58:29;;;;;;;8.45;4.93;;;998.60;921.60;;;;;;5075311;28;20032;-76
2021/08/09 12:00:55;;;;;;;9.40;5.35;;;998.80;870.40;;;;;;5075289;28;20048;-75
2021/08/09 12:03:23;;;;;;;10.18;5.97;;;998.80;896.00;;;;;;5075314;28;20059;-76
2021/08/09 12:05:48;;;;;;;7.05;6.35;;;999.00;896.00;;;;;;5075282;28;20047;-74
2021/08/09 12:08:14;;;;;;;6.47;5.45;;;999.20;844.80;;;;;;5075222;28;20025;-79
2021/08/09 12:10:40;;;;;;;10.63;6.25;;;999.30;844.80;;;;;;5075110;28;20486;-76
2021/08/09 12:13:29;;;;;;;10.18;6.55;;;999.30;844.80;;;;;;5075240;28;20477;-75
2021/08/09 12:16:15;;;;;;;11.73;6.68;;;999.30;819.20;;;;;;5074683;28;20055;-76
2021/08/09 12:18:52;;;;;;;7.88;5.60;;;999.20;844.80;;;;;;5075166;28;20032;-76
2021/08/09 12:21:19;;;;;;;9.10;6.35;;;999.30;844.80;;;;;;5074901;28;20024;-75
2021/08/09 12:23:55;;;;;;;9.45;7.13;;;999.30;844.80;;;;;;5074992;28;20031;-78
2021/08/09 12:26:33;;;;;;;10.02;6.22;;;1024.00;896.00;;;;;;5056968;28;20051;-77
2021/08/09 12:29:06;;;;;;;9.98;7.20;;;1024.00;819.20;;;;;;5074884;28;20021;-77
2021/08/09 12:31:32;;;;;;;9.68;7.30;;;999.30;819.20;;;;;;5074571;28;20036;-77
2021/08/09 12:34:04;;;;;;;9.20;6.35;;;1024.10;844.80;;;;;;5074910;28;20108;-77
2021/08/09 12:36:30;;;;;;;;;;;1024.00;819.20;;;;;;5074859;28;20064;-74
2021/08/09 12:38:56;;;;;;;10.20;6.60;;;999.30;819.20;;;;;;5074452;28;19912;-80
2021/08/09 12:41:29;;;;;;;9.52;6.93;;;1024.00;819.20;;;;;;5074522;28;20433;-80
2021/08/09 12:43:56;;;;;;;15.00;6.28;;;1024.00;819.20;;;;;;5075609;28;20094;-80
2021/08/09 12:46:22;;;;;;;9.10;5.45;;;999.30;819.20;;;;;;5075592;28;20393;-79
2021/08/09 12:48:51;;;;;;;10.07;5.78;;;999.30;819.20;;;;;;5075527;28;20020;-78
2021/08/09 12:51:18;;;;;;;10.70;7.00;;;999.30;819.20;;;;;;5075230;28;20108;-81
2021/08/09 12:53:44;;;;;;;10.75;6.88;;;999.30;819.20;;;;;;5075360;28;20486;-80
2021/08/09 12:56:11;;;;;;;8.48;6.55;;;1024.10;819.20;;;;;;5075040;28;20040;-79
2021/08/09 12:58:37;;;;;;;9.00;6.72;;;1024.30;819.20;;;;;;5057234;28;20408;-79
2021/08/09 13:01:04;;;;;;;11.95;6.85;;;1024.30;819.20;;;;;;5075361;28;20021;-80
2021/08/09 13:03:30;;;;;;;14.10;6.45;;;1024.40;793.60;;;;;;5075191;28;20032;-80
2021/08/09 13:05:56;;;;;;;10.07;7.13;;;1024.30;793.60;;;;;;5075052;28;20036;-80
2021/08/09 13:08:22;;;;;;;11.90;7.90;;;1024.30;793.60;;;;;;5075333;28;20036;-80
2021/08/09 13:10:48;;;;;;;11.55;6.45;;;1024.40;819.20;;;;;;5056922;28;20024;-79
2021/08/09 13:13:13;;;;;;;8.07;5.90;;;1024.40;793.60;;;;;;5062174;28;20035;-79
2021/08/09 13:15:40;;;;;;;11.82;6.47;;;1024.40;768.00;;;;;;5080510;28;20021;-78
2021/08/09 13:18:06;;;;;;;9.63;6.55;;;1024.50;844.80;;;;;;5058548;28;20040;-79
2021/08/09 13:20:38;;;;;;;9.55;7.25;;;1024.80;793.60;;;;;;5074780;28;20099;-78
2021/08/09 13:23:16;;;;;;;10.15;6.93;;;1024.80;768.00;;;;;;5079769;28;20490;-79
2021/08/09 13:25:42;;;;;;;13.48;6.80;;;1024.80;768.00;;;;;;5074937;28;20388;-80
2021/08/09 13:28:15;;;;;;;11.07;6.65;;;1024.80;793.60;;;;;;5074642;28;20146;-80
2021/08/09 13:30:41;;;;;;;9.18;7.07;;;1049.60;819.20;;;;;;5075083;28;20447;-80
2021/08/09 13:33:07;;;;;;;12.13;7.03;;;1049.70;844.80;;;;;;5074942;28;20029;-81
2021/08/09 13:35:33;;;;;;;8.85;5.97;;;1049.80;793.60;;;;;;5081354;28;20090;-80
2021/08/09 13:38:00;;;;;;;10.35;6.53;;;1050.00;844.80;;;;;;5090649;28;20047;-79